This is the latest recevied weather packets stored in our database for station/object HP1CDW-10. If no packets are shown the sender has not sent any weather packets the latest 10 day(s).
| Time | Temp. | Humidity | Pressure | Rain* | Wind** | Luminosity | Snow |
|---|---|---|---|---|---|---|---|
| 1788338939 | 33.33° C | 51% | 1003.9 hPa | - | - | - | - |
| 1788337729 | 34.44° C | 48% | 1003.8 hPa | - | - | - | - |
| 1788337125 | 34.44° C | 48% | 1003.8 hPa | - | - | - | - |
| 1788336520 | 34.44° C | 49% | 1003.8 hPa | - | - | - | - |
| 1788335915 | 33.89° C | 50% | 1004 hPa | - | - | - | - |
| 1788334706 | 33.89° C | 50% | 1003.9 hPa | - | - | - | - |
| 1788332891 | 34.44° C | 50% | 1003.9 hPa | - | - | - | - |
| 1788332306 | 33.33° C | 53% | 1004 hPa | - | - | - | - |
| 1788331682 | 33.89° C | 51% | 1004.2 hPa | - | - | - | - |
| 1788331077 | 33.89° C | 51% | 1004.3 hPa | - | - | - | - |
| 1788330472 | 33.33° C | 52% | 1004.6 hPa | - | - | - | - |
| 1788329867 | 33.33° C | 53% | 1004.8 hPa | - | - | - | - |
| 1788329263 | 33.89° C | 51% | 1005 hPa | - | - | - | - |
| 1788328658 | 34.44° C | 50% | 1005 hPa | - | - | - | - |
| 1788328053 | 33.89° C | 51% | 1005 hPa | - | - | - | - |
| 1788325634 | 34.44° C | 49% | 1005.2 hPa | - | - | - | - |
| 1788325029 | 34.44° C | 50% | 1005.3 hPa | - | - | - | - |
| 1788324424 | 35° C | 48% | 1005.3 hPa | - | - | - | - |
| 1788323820 | 35° C | 47% | 1005.2 hPa | - | - | - | - |
| 1788323215 | 35.56° C | 47% | 1005.3 hPa | - | - | - | - |
| 1788322610 | 35.56° C | 46% | 1005.4 hPa | - | - | - | - |
| 1788322005 | 35.56° C | 46% | 1005.5 hPa | - | - | - | - |
| 1788320811 | 35.56° C | 46% | 1005.7 hPa | - | - | - | - |
| 1788320191 | 35.56° C | 46% | 1005.6 hPa | - | - | - | - |
| 1788319586 | 35.56° C | 46% | 1005.6 hPa | - | - | - | - |
* Rain since midnight (hover to see other rain measurements)
** Current wind speed in m/s (hover to see current wind gust speed)